createdAt,value
2023-05-07T00:01:30.806Z,100782.88
2023-05-07T00:03:59.127Z,100791.47
2023-05-07T00:06:30.105Z,100795.75
2023-05-07T00:09:00.506Z,100790.16
2023-05-07T00:11:29.475Z,100798.06
2023-05-07T00:13:57.688Z,100792.84
2023-05-07T00:16:27.428Z,100783.88
2023-05-07T00:18:55.765Z,100778.16
2023-05-07T00:21:27.625Z,100786.25
2023-05-07T00:23:56.143Z,100779.22
2023-05-07T00:26:26.120Z,100792.50
2023-05-07T00:28:55.525Z,100783.25
2023-05-07T00:31:24.270Z,100793.56
2023-05-07T00:33:52.636Z,100791.63
2023-05-07T00:36:21.195Z,100795.97
2023-05-07T00:38:49.464Z,100793.47
2023-05-07T00:41:18.149Z,100790.25
2023-05-07T00:43:46.475Z,100791.81
2023-05-07T00:46:15.876Z,100787.84
2023-05-07T00:48:44.447Z,100790.84
2023-05-07T00:51:13.064Z,100793.91
2023-05-07T00:53:41.356Z,100784.63
2023-05-07T00:56:09.994Z,100787.72
2023-05-07T00:58:38.433Z,100781.69
2023-05-07T01:01:07.630Z,100781.03
2023-05-07T01:03:36.363Z,100784.09
2023-05-07T01:06:06.763Z,100785.78
2023-05-07T01:08:36.334Z,100779.75
2023-05-07T01:11:06.106Z,100785.03
2023-05-07T01:13:35.929Z,100790.84
2023-05-07T01:16:05.218Z,100786.75
2023-05-07T01:18:33.724Z,100776.50
2023-05-07T01:21:03.087Z,100774.03
2023-05-07T01:23:31.538Z,100772.00
2023-05-07T01:26:01.370Z,100774.84
2023-05-07T01:28:31.654Z,100780.34
2023-05-07T01:31:05.462Z,100763.44
2023-05-07T01:33:36.319Z,100764.56
2023-05-07T01:36:07.463Z,100768.25
2023-05-07T01:38:37.595Z,100766.69
2023-05-07T01:41:06.324Z,100770.75
2023-05-07T01:43:34.573Z,100771.91
2023-05-07T01:46:03.585Z,100770.94
2023-05-07T01:48:32.045Z,100783.75
2023-05-07T01:51:00.653Z,100780.22
2023-05-07T01:53:29.728Z,100778.25
2023-05-07T01:55:58.322Z,100780.06
2023-05-07T01:58:27.699Z,100772.50
2023-05-07T02:00:56.402Z,100774.31
2023-05-07T02:03:24.960Z,100777.38
2023-05-07T02:06:02.592Z,100781.91
2023-05-07T02:08:37.217Z,100775.72
2023-05-07T02:11:06.078Z,100781.50
2023-05-07T02:13:35.855Z,100768.72
2023-05-07T02:16:05.033Z,100778.69
2023-05-07T02:18:33.501Z,100775.63
2023-05-07T02:21:02.469Z,100783.50
2023-05-07T02:23:30.848Z,100781.69
2023-05-07T02:25:59.798Z,100784.19
2023-05-07T02:28:28.754Z,100785.75
2023-05-07T02:31:05.675Z,100783.78
2023-05-07T02:33:36.153Z,100775.38
2023-05-07T02:36:08.929Z,100767.78
2023-05-07T02:38:39.253Z,100774.25
2023-05-07T02:41:08.193Z,100768.91
2023-05-07T02:43:36.728Z,100768.94
2023-05-07T02:46:06.838Z,100773.28
2023-05-07T02:48:38.340Z,100776.22
2023-05-07T02:51:06.977Z,100783.00
2023-05-07T02:53:37.314Z,100776.22
2023-05-07T02:56:07.700Z,100781.75
2023-05-07T02:58:35.977Z,100777.94
2023-05-07T03:01:07.174Z,100780.47
2023-05-07T03:03:43.070Z,100774.31
2023-05-07T03:06:11.666Z,100778.06
2023-05-07T03:08:39.973Z,100780.19
2023-05-07T03:11:08.605Z,100781.34
2023-05-07T03:13:36.875Z,100775.44
2023-05-07T03:16:05.905Z,100781.59
2023-05-07T03:18:34.350Z,100780.06
2023-05-07T03:21:03.146Z,100778.94
2023-05-07T03:23:34.191Z,100783.47
2023-05-07T03:26:02.817Z,100779.38
2023-05-07T03:28:31.123Z,100771.81
2023-05-07T03:31:04.106Z,100774.63
2023-05-07T03:33:35.457Z,100773.22
2023-05-07T03:36:04.356Z,100768.44
2023-05-07T03:38:32.748Z,100769.00
2023-05-07T03:41:01.404Z,100771.50
2023-05-07T03:43:30.582Z,100778.94
2023-05-07T03:46:05.912Z,100774.88
2023-05-07T03:48:34.301Z,100778.25
2023-05-07T03:51:03.235Z,100784.16
2023-05-07T03:53:34.663Z,100785.13
2023-05-07T03:56:05.236Z,100780.09
2023-05-07T03:58:37.547Z,100781.38
2023-05-07T04:01:10.640Z,100779.69
2023-05-07T04:03:39.088Z,100771.22
2023-05-07T04:06:08.736Z,100772.34
2023-05-07T04:08:38.334Z,100768.69
2023-05-07T04:11:08.763Z,100773.31
2023-05-07T04:13:39.153Z,100783.28
2023-05-07T04:16:09.871Z,100771.22
2023-05-07T04:18:39.865Z,100784.44
2023-05-07T04:21:19.325Z,100786.66
2023-05-07T04:23:49.058Z,100787.50
2023-05-07T04:26:17.726Z,100790.16
2023-05-07T04:28:47.256Z,100785.25
2023-05-07T04:31:17.675Z,100787.66
2023-05-07T04:33:49.568Z,100788.63
2023-05-07T04:36:18.464Z,100796.06
2023-05-07T04:38:55.690Z,100792.00
2023-05-07T04:41:24.349Z,100803.34
2023-05-07T04:43:52.738Z,100805.31
2023-05-07T04:46:26.022Z,100801.50
2023-05-07T04:48:56.639Z,100803.63
2023-05-07T04:51:25.754Z,100798.69
2023-05-07T04:53:54.741Z,100819.91
2023-05-07T04:56:23.457Z,100785.78
2023-05-07T04:58:52.182Z,100814.19
2023-05-07T05:01:23.272Z,100810.97
2023-05-07T05:03:51.741Z,100817.56
2023-05-07T05:06:22.015Z,100810.41
2023-05-07T05:08:51.936Z,100827.53
2023-05-07T05:11:20.666Z,100811.38
2023-05-07T05:13:50.624Z,100829.66
2023-05-07T05:16:22.512Z,100831.47
2023-05-07T05:18:53.190Z,100839.06
2023-05-07T05:21:23.132Z,100851.25
2023-05-07T05:23:55.317Z,100851.00
2023-05-07T05:26:27.539Z,100848.75
2023-05-07T05:28:55.836Z,100854.94
2023-05-07T05:31:26.736Z,100852.41
2023-05-07T05:33:55.021Z,100858.28
2023-05-07T05:36:24.777Z,100858.28
2023-05-07T05:38:57.446Z,100855.47
2023-05-07T05:41:26.184Z,100839.22
2023-05-07T05:43:54.817Z,100841.09
2023-05-07T05:46:24.035Z,100836.47
2023-05-07T05:48:53.631Z,100845.44
2023-05-07T05:51:23.512Z,100847.41
2023-05-07T05:53:52.296Z,100842.19
2023-05-07T05:56:22.460Z,100833.91
2023-05-07T05:58:50.910Z,100840.34
2023-05-07T06:01:21.825Z,100854.00
2023-05-07T06:03:52.393Z,100848.22
2023-05-07T06:06:21.095Z,100858.06
2023-05-07T06:08:49.539Z,100845.41
2023-05-07T06:11:23.565Z,100857.34
2023-05-07T06:13:52.549Z,100855.25
2023-05-07T06:16:21.571Z,100852.13
2023-05-07T06:18:50.144Z,100854.91
2023-05-07T06:21:19.458Z,100855.78
2023-05-07T06:23:48.022Z,100854.41
2023-05-07T06:26:16.675Z,100859.19
2023-05-07T06:28:48.791Z,100857.19
2023-05-07T06:31:22.832Z,100860.59
2023-05-07T06:33:56.630Z,100857.81
2023-05-07T06:36:30.328Z,100855.84
2023-05-07T06:39:00.266Z,100856.53
2023-05-07T06:41:28.927Z,100859.00
2023-05-07T06:44:06.284Z,100863.25
2023-05-07T06:46:46.583Z,100865.44
2023-05-07T06:49:16.554Z,100865.00
2023-05-07T06:51:45.650Z,100862.50
2023-05-07T06:54:14.114Z,100868.91
2023-05-07T06:56:44.205Z,100866.78
2023-05-07T06:59:12.718Z,100866.97
2023-05-07T07:01:43.373Z,100859.53
2023-05-07T07:04:14.180Z,100864.50
2023-05-07T07:06:45.268Z,100862.53
2023-05-07T07:09:15.121Z,100863.22
2023-05-07T07:11:44.382Z,100867.34
2023-05-07T07:14:12.902Z,100864.25
2023-05-07T07:16:49.154Z,100863.66
2023-05-07T07:19:21.501Z,100864.63
2023-05-07T07:21:53.329Z,100857.31
2023-05-07T07:24:22.677Z,100865.09
2023-05-07T07:26:56.664Z,100867.31
2023-05-07T07:29:27.956Z,100866.75
2023-05-07T07:31:57.481Z,100850.00
2023-05-07T07:34:26.439Z,100858.13
2023-05-07T07:36:55.472Z,100856.47
2023-05-07T07:39:23.948Z,100857.31
2023-05-07T07:41:56.139Z,100850.44
2023-05-07T07:44:24.798Z,100842.22
2023-05-07T07:47:00.292Z,100851.16
2023-05-07T07:49:29.955Z,100851.66
2023-05-07T07:52:01.811Z,100847.09
2023-05-07T07:54:31.870Z,100855.81
2023-05-07T07:57:03.416Z,100863.94
2023-05-07T07:59:34.787Z,100863.84
2023-05-07T08:02:03.600Z,100859.59
2023-05-07T08:04:34.342Z,100870.63
2023-05-07T08:07:07.100Z,100870.16
2023-05-07T08:09:39.822Z,100868.34
2023-05-07T08:12:09.241Z,100867.66
2023-05-07T08:14:38.579Z,100869.16
2023-05-07T08:17:10.989Z,100878.09
2023-05-07T08:19:40.583Z,100870.47
2023-05-07T08:22:15.214Z,100868.59
2023-05-07T08:24:44.137Z,100869.97
2023-05-07T08:27:13.768Z,100876.56
2023-05-07T08:29:49.145Z,100885.16
2023-05-07T08:32:20.315Z,100888.91
2023-05-07T08:34:49.388Z,100879.38
2023-05-07T08:37:19.388Z,100874.88
2023-05-07T08:39:48.221Z,100875.84
2023-05-07T08:42:22.564Z,100881.50
2023-05-07T08:44:54.293Z,100882.38
2023-05-07T08:47:24.844Z,100887.88
2023-05-07T08:49:56.728Z,100877.56
2023-05-07T08:52:28.193Z,100877.50
2023-05-07T08:54:57.603Z,100880.00
2023-05-07T08:57:28.635Z,100874.59
2023-05-07T08:59:57.973Z,100874.69
2023-05-07T09:02:26.672Z,100868.91
2023-05-07T09:04:56.931Z,100879.38
2023-05-07T09:07:27.873Z,100877.31
2023-05-07T09:09:56.819Z,100872.50
2023-05-07T09:12:25.652Z,100871.06
2023-05-07T09:14:54.140Z,100870.22
2023-05-07T09:17:22.953Z,100874.22
2023-05-07T09:19:51.821Z,100868.00
2023-05-07T09:22:20.600Z,100863.72
2023-05-07T09:24:57.121Z,100871.22
2023-05-07T09:27:28.709Z,100864.41
2023-05-07T09:29:58.697Z,100867.28
2023-05-07T09:32:29.376Z,100870.16
2023-05-07T09:35:00.290Z,100861.97
2023-05-07T09:37:32.424Z,100869.00
2023-05-07T09:40:01.742Z,100865.88
2023-05-07T09:42:32.671Z,100859.44
2023-05-07T09:45:06.938Z,100858.53
2023-05-07T09:47:39.817Z,100864.25
2023-05-07T09:50:08.670Z,100862.88
2023-05-07T09:52:37.290Z,100865.41
2023-05-07T09:55:08.590Z,100868.84
2023-05-07T09:57:37.336Z,100866.25
2023-05-07T10:00:10.471Z,100861.97
2023-05-07T10:02:53.579Z,100859.44
2023-05-07T10:05:30.405Z,100856.59
2023-05-07T10:08:03.301Z,100861.81
2023-05-07T10:10:35.094Z,100850.50
2023-05-07T10:13:07.118Z,100855.44
2023-05-07T10:15:36.694Z,100854.69
2023-05-07T10:18:06.467Z,100848.78
2023-05-07T10:20:36.055Z,100847.72
2023-05-07T10:23:07.163Z,100841.25
2023-05-07T10:25:42.926Z,100840.91
2023-05-07T10:28:21.009Z,100840.44
2023-05-07T10:31:44.305Z,100843.56
2023-05-07T10:34:15.343Z,100838.25
2023-05-07T10:36:44.343Z,100841.88
2023-05-07T10:39:13.101Z,100836.84
2023-05-07T10:41:42.253Z,100836.00
2023-05-07T10:44:12.917Z,100828.19
2023-05-07T10:46:41.379Z,100834.25
2023-05-07T10:49:17.497Z,100834.03
2023-05-07T10:52:21.035Z,100832.69
2023-05-07T10:55:18.890Z,100832.53
2023-05-07T11:02:12.214Z,100824.69
2023-05-07T11:05:23.984Z,100824.25
2023-05-07T11:08:03.458Z,100819.03
2023-05-07T11:10:58.229Z,100810.88
2023-05-07T11:13:48.738Z,100806.69
2023-05-07T11:16:40.219Z,100811.28
2023-05-07T11:19:58.751Z,100809.38
2023-05-07T11:22:38.609Z,100808.38
2023-05-07T11:25:33.471Z,100805.50
2023-05-07T11:28:18.060Z,100795.97
2023-05-07T11:30:58.311Z,100795.53
2023-05-07T11:33:27.185Z,100802.09
2023-05-07T11:35:58.376Z,100794.91
2023-05-07T11:38:36.431Z,100791.03
2023-05-07T11:41:06.514Z,100793.75
2023-05-07T11:43:36.832Z,100787.53
2023-05-07T11:46:12.667Z,100788.72
2023-05-07T11:48:41.204Z,100791.06
2023-05-07T11:51:10.320Z,100781.50
2023-05-07T11:53:41.109Z,100795.59
2023-05-07T11:56:13.000Z,100791.25
2023-05-07T11:58:41.981Z,100787.53
2023-05-07T12:01:11.647Z,100783.06
2023-05-07T12:03:43.958Z,100786.41
2023-05-07T12:06:17.973Z,100774.84
2023-05-07T12:08:48.358Z,100783.41
2023-05-07T12:11:24.069Z,100785.38
2023-05-07T12:13:53.026Z,100781.72
2023-05-07T12:16:21.925Z,100788.78
2023-05-07T12:18:51.221Z,100777.84
2023-05-07T12:21:20.066Z,100785.22
2023-05-07T12:23:49.095Z,100779.50
2023-05-07T12:26:18.208Z,100789.94
2023-05-07T12:28:46.736Z,100781.22
2023-05-07T12:31:16.246Z,100775.69
2023-05-07T12:33:44.744Z,100781.25
2023-05-07T12:36:14.498Z,100779.03
2023-05-07T12:38:43.006Z,100786.78
2023-05-07T12:41:13.765Z,100777.69
2023-05-07T12:43:46.897Z,100778.88
2023-05-07T12:46:17.837Z,100768.75
2023-05-07T12:48:49.667Z,100775.19
2023-05-07T12:51:18.436Z,100762.25
2023-05-07T12:53:47.235Z,100765.13
2023-05-07T12:56:17.404Z,100760.09
2023-05-07T12:58:46.001Z,100762.25
2023-05-07T13:01:16.810Z,100761.25
2023-05-07T13:03:49.770Z,100759.72
2023-05-07T13:06:18.917Z,100769.63
2023-05-07T13:08:47.447Z,100761.75
2023-05-07T13:11:16.511Z,100767.28
2023-05-07T13:13:45.001Z,100749.50
2023-05-07T13:16:13.899Z,100751.81
2023-05-07T13:18:45.039Z,100750.66
2023-05-07T13:21:14.608Z,100741.09
2023-05-07T13:23:43.192Z,100734.53
2023-05-07T13:26:25.441Z,100742.84
2023-05-07T13:28:55.834Z,100736.66
2023-05-07T13:31:25.721Z,100742.09
2023-05-07T13:33:54.309Z,100723.28
2023-05-07T13:36:23.096Z,100734.16
2023-05-07T13:38:53.040Z,100731.41
2023-05-07T13:41:22.217Z,100727.75
2023-05-07T13:43:50.668Z,100736.34
2023-05-07T13:46:19.807Z,100730.91
2023-05-07T13:48:48.335Z,100726.91
2023-05-07T13:51:18.133Z,100721.56
2023-05-07T13:53:46.617Z,100724.53
2023-05-07T13:56:16.064Z,100723.34
2023-05-07T13:58:56.427Z,100715.28
2023-05-07T14:01:28.412Z,100707.72
2023-05-07T14:03:59.179Z,100704.50
2023-05-07T14:06:28.151Z,100703.28
2023-05-07T14:08:59.278Z,100713.03
2023-05-07T14:11:28.261Z,100701.34
2023-05-07T14:13:58.210Z,100705.34
2023-05-07T14:16:27.057Z,100703.81
2023-05-07T14:18:57.823Z,100704.31
2023-05-07T14:21:27.551Z,100694.22
2023-05-07T14:23:57.941Z,100700.91
2023-05-07T14:26:28.289Z,100691.53
2023-05-07T14:28:59.689Z,100685.81
2023-05-07T14:31:28.938Z,100700.03
2023-05-07T14:33:59.217Z,100695.25
2023-05-07T14:36:28.342Z,100706.00
2023-05-07T14:38:56.976Z,100699.38
2023-05-07T14:41:25.965Z,100702.44
2023-05-07T14:43:54.565Z,100694.06
2023-05-07T14:46:23.531Z,100694.31
2023-05-07T14:48:52.127Z,100696.69
2023-05-07T14:51:21.101Z,100700.03
2023-05-07T14:53:49.636Z,100694.38
2023-05-07T14:56:18.718Z,100701.28
2023-05-07T14:58:49.078Z,100696.09
2023-05-07T15:01:17.818Z,100708.03
2023-05-07T15:03:47.155Z,100701.63
2023-05-07T15:06:15.728Z,100693.22
2023-05-07T15:08:44.547Z,100694.94
2023-05-07T15:11:13.201Z,100699.59
2023-05-07T15:13:44.104Z,100687.03
2023-05-07T15:16:12.884Z,100689.81
2023-05-07T15:18:41.906Z,100682.25
2023-05-07T15:21:10.586Z,100694.22
2023-05-07T15:23:39.791Z,100682.47
2023-05-07T15:26:09.354Z,100681.31
2023-05-07T15:28:40.411Z,100675.28
2023-05-07T15:31:10.468Z,100684.13
2023-05-07T15:33:39.374Z,100682.09
2023-05-07T15:36:08.078Z,100685.34
2023-05-07T15:38:37.027Z,100688.84
2023-05-07T15:41:05.557Z,100686.16
2023-05-07T15:43:34.395Z,100690.75
2023-05-07T15:46:03.079Z,100692.59
2023-05-07T15:48:32.108Z,100689.38
2023-05-07T15:51:00.684Z,100681.47
2023-05-07T15:53:29.665Z,100678.47
2023-05-07T15:55:58.263Z,100681.66
2023-05-07T15:58:28.160Z,100675.44
2023-05-07T16:00:56.787Z,100680.84
2023-05-07T16:03:27.857Z,100689.22
2023-05-07T16:06:01.358Z,100678.97
2023-05-07T16:08:30.967Z,100677.09
2023-05-07T16:10:59.630Z,100683.19
2023-05-07T16:13:28.571Z,100664.75
2023-05-07T16:15:58.813Z,100676.97
2023-05-07T16:18:27.749Z,100668.44
2023-05-07T16:20:56.652Z,100677.31
2023-05-07T16:23:25.995Z,100671.94
2023-05-07T16:25:54.848Z,100671.13
2023-05-07T16:28:25.625Z,100671.28
2023-05-07T16:30:54.540Z,100674.63
2023-05-07T16:33:23.438Z,100667.22
2023-05-07T16:35:54.737Z,100664.34
2023-05-07T16:38:23.680Z,100665.03
2023-05-07T16:40:52.699Z,100663.38
2023-05-07T16:43:21.559Z,100676.66
2023-05-07T16:45:50.321Z,100684.88
2023-05-07T16:48:21.143Z,100678.69
2023-05-07T16:50:50.098Z,100675.88
2023-05-07T16:53:20.065Z,100677.72
2023-05-07T16:55:48.665Z,100678.72
2023-05-07T16:58:17.639Z,100689.31
2023-05-07T17:00:50.513Z,100683.25
2023-05-07T17:03:20.355Z,100685.44
2023-05-07T17:05:49.195Z,100691.00
2023-05-07T17:08:18.107Z,100699.22
2023-05-07T17:10:46.914Z,100683.28
2023-05-07T17:13:16.079Z,100697.44
2023-05-07T17:15:46.742Z,100690.53
2023-05-07T17:18:15.931Z,100704.78
2023-05-07T17:20:44.525Z,100696.25
2023-05-07T17:23:14.018Z,100684.00
2023-05-07T17:25:45.961Z,100692.72
2023-05-07T17:28:14.965Z,100696.44
2023-05-07T17:30:43.764Z,100696.44
2023-05-07T17:33:20.953Z,100701.78
2023-05-07T17:35:50.537Z,100701.78
2023-05-07T17:38:19.415Z,100702.78
2023-05-07T17:40:48.704Z,100705.31
2023-05-07T17:43:17.639Z,100705.84
2023-05-07T17:45:46.962Z,100706.66
2023-05-07T17:48:16.001Z,100711.22
2023-05-07T17:50:44.950Z,100713.91
2023-05-07T17:53:13.920Z,100704.16
2023-05-07T17:55:44.021Z,100706.16
2023-05-07T17:58:13.056Z,100706.16
2023-05-07T18:00:41.666Z,100707.34
2023-05-07T18:03:11.045Z,100707.53
2023-05-07T18:05:39.985Z,100710.22
2023-05-07T18:08:08.934Z,100711.41
2023-05-07T18:10:37.711Z,100720.97
2023-05-07T18:13:06.634Z,100706.84
2023-05-07T18:15:35.296Z,100713.06
2023-05-07T18:18:04.431Z,100715.75
2023-05-07T18:20:32.968Z,100708.03
2023-05-07T18:23:01.904Z,100711.41
2023-05-07T18:25:31.089Z,100710.56
2023-05-07T18:28:01.395Z,100713.25
2023-05-07T18:30:29.976Z,100713.41
2023-05-07T18:32:58.922Z,100717.09
2023-05-07T18:35:27.517Z,100719.94
2023-05-07T18:37:56.473Z,100723.66
2023-05-07T18:40:25.125Z,100726.13
2023-05-07T18:42:54.195Z,100739.94
2023-05-07T18:45:22.803Z,100739.06
2023-05-07T18:47:51.838Z,100748.13
2023-05-07T18:50:20.567Z,100746.47
2023-05-07T18:52:49.506Z,100746.47
2023-05-07T18:55:18.670Z,100748.31
2023-05-07T18:57:47.828Z,100746.63
2023-05-07T19:00:16.969Z,100735.91
2023-05-07T19:02:45.860Z,100744.47
2023-05-07T19:05:14.470Z,100747.16
2023-05-07T19:07:43.304Z,100753.50
2023-05-07T19:10:11.882Z,100735.53
2023-05-07T19:12:41.131Z,100751.50
2023-05-07T19:15:10.424Z,100742.94
2023-05-07T19:17:39.358Z,100749.81
2023-05-07T19:20:12.049Z,100742.41
2023-05-07T19:22:43.233Z,100750.47
2023-05-07T19:25:13.519Z,100742.09
2023-05-07T19:27:42.563Z,100755.38
2023-05-07T19:30:11.819Z,100755.69
2023-05-07T19:32:40.891Z,100757.88
2023-05-07T19:35:09.890Z,100765.75
2023-05-07T19:37:39.415Z,100771.28
2023-05-07T19:40:09.688Z,100768.91
2023-05-07T19:42:38.936Z,100772.28
2023-05-07T19:45:08.265Z,100775.97
2023-05-07T19:47:37.402Z,100791.72
2023-05-07T19:50:06.950Z,100796.28
2023-05-07T19:52:36.756Z,100799.25
2023-05-07T19:55:06.196Z,100810.66
2023-05-07T19:57:35.493Z,100803.91
2023-05-07T20:00:07.125Z,100818.25
2023-05-07T20:02:42.308Z,100814.75
2023-05-07T20:05:11.648Z,100809.28
2023-05-07T20:07:41.228Z,100816.31
2023-05-07T20:10:10.383Z,100814.84
2023-05-07T20:12:39.955Z,100807.94
2023-05-07T20:15:09.596Z,100818.53
2023-05-07T20:17:38.633Z,100825.25
2023-05-07T20:20:08.120Z,100821.91
2023-05-07T20:22:37.153Z,100822.72
2023-05-07T20:25:06.930Z,100824.56
2023-05-07T20:27:36.500Z,100817.84
2023-05-07T20:30:06.931Z,100808.94
2023-05-07T20:32:36.796Z,100808.78
2023-05-07T20:35:06.715Z,100790.84
2023-05-07T20:37:36.149Z,100797.25
2023-05-07T20:40:05.523Z,100796.75
2023-05-07T20:42:34.498Z,100798.28
2023-05-07T20:45:04.113Z,100805.81
2023-05-07T20:47:34.022Z,100812.53
2023-05-07T20:50:03.414Z,100815.41
2023-05-07T20:52:32.286Z,100818.56
2023-05-07T20:55:00.837Z,100821.94
2023-05-07T20:57:29.920Z,100829.16
2023-05-07T20:59:59.453Z,100828.19
2023-05-07T21:02:28.623Z,100830.00
2023-05-07T21:04:57.329Z,100838.72
2023-05-07T21:07:26.242Z,100849.16
2023-05-07T21:09:54.824Z,100857.88
2023-05-07T21:12:24.105Z,100856.03
2023-05-07T21:14:52.646Z,100860.41
2023-05-07T21:17:21.558Z,100862.25
2023-05-07T21:19:50.316Z,100868.63
2023-05-07T21:22:19.225Z,100852.81
2023-05-07T21:24:47.862Z,100867.78
2023-05-07T21:27:16.753Z,100873.31
2023-05-07T21:29:45.411Z,100872.47
2023-05-07T21:32:14.272Z,100868.44
2023-05-07T21:34:42.843Z,100886.75
2023-05-07T21:37:11.637Z,100900.84
2023-05-07T21:39:40.204Z,100935.44
2023-05-07T21:42:09.013Z,100973.03
2023-05-07T21:44:37.574Z,100980.22
2023-05-07T21:47:06.483Z,100978.84
2023-05-07T21:49:35.042Z,100965.94
2023-05-07T21:52:04.133Z,100950.13
2023-05-07T21:54:32.645Z,100926.63
2023-05-07T21:57:02.435Z,100948.34
2023-05-07T21:59:30.999Z,100984.56
2023-05-07T22:02:01.129Z,100986.38
2023-05-07T22:04:29.905Z,100991.41
2023-05-07T22:06:58.886Z,100990.81
2023-05-07T22:09:27.453Z,100994.47
2023-05-07T22:11:56.485Z,100999.84
2023-05-07T22:14:25.023Z,101006.69
2023-05-07T22:16:54.063Z,100998.63
2023-05-07T22:19:22.639Z,100991.81
2023-05-07T22:21:51.625Z,100988.75
2023-05-07T22:24:20.174Z,101012.22
2023-05-07T22:26:49.172Z,101033.00
2023-05-07T22:29:17.699Z,101024.75
2023-05-07T22:31:46.557Z,101034.31
2023-05-07T22:34:15.225Z,101027.63
2023-05-07T22:36:44.311Z,101025.69
2023-05-07T22:39:12.866Z,101011.00
2023-05-07T22:41:41.802Z,101004.63
2023-05-07T22:44:10.364Z,101005.16
2023-05-07T22:46:39.605Z,101004.84
2023-05-07T22:49:08.188Z,101000.47
2023-05-07T22:51:37.034Z,101003.03
2023-05-07T22:54:05.705Z,100995.94
2023-05-07T22:56:34.755Z,100983.22
2023-05-07T22:59:03.186Z,100977.03
2023-05-07T23:01:31.989Z,100982.22
2023-05-07T23:04:00.533Z,100983.22
2023-05-07T23:06:29.474Z,100979.41
2023-05-07T23:08:59.142Z,100995.31
2023-05-07T23:11:28.903Z,100994.31
2023-05-07T23:13:57.435Z,100998.00
2023-05-07T23:16:26.346Z,100999.66
2023-05-07T23:18:55.789Z,100994.28
2023-05-07T23:21:24.784Z,100999.31
2023-05-07T23:23:53.324Z,101007.75
2023-05-07T23:26:22.185Z,101002.38
2023-05-07T23:28:50.665Z,101001.69
2023-05-07T23:31:19.831Z,101000.16
2023-05-07T23:33:48.391Z,100986.59
2023-05-07T23:36:17.210Z,100963.28
2023-05-07T23:38:46.084Z,100960.59
2023-05-07T23:41:14.949Z,100954.38
2023-05-07T23:43:43.620Z,100942.81
2023-05-07T23:46:12.537Z,100955.41
2023-05-07T23:48:41.207Z,100947.00
2023-05-07T23:51:10.071Z,100942.50
2023-05-07T23:53:38.689Z,100938.97
2023-05-07T23:56:07.613Z,100939.81
2023-05-07T23:58:36.281Z,100942.50
